sensor_id;sensor_type;location;lat;lon;timestamp;pressure;altitude;pressure_sealevel;temperature;humidity
85039;BME280;75366;54.588;18.456;2024-02-26T00:04:31;99863.20;;;2.76;83.33
85039;BME280;75366;54.588;18.456;2024-02-26T00:09:33;99866.98;;;2.76;83.47
85039;BME280;75366;54.588;18.456;2024-02-26T00:14:39;99865.55;;;2.79;83.70
85039;BME280;75366;54.588;18.456;2024-02-26T00:19:41;99866.08;;;2.84;83.72
85039;BME280;75366;54.588;18.456;2024-02-26T00:24:43;99863.15;;;2.90;83.93
85039;BME280;75366;54.588;18.456;2024-02-26T00:29:44;99864.64;;;2.95;83.96
85039;BME280;75366;54.588;18.456;2024-02-26T00:34:46;99861.16;;;2.93;84.12
85039;BME280;75366;54.588;18.456;2024-02-26T00:39:48;99858.38;;;2.97;84.07
85039;BME280;75366;54.588;18.456;2024-02-26T00:44:49;99852.48;;;3.01;83.98
85039;BME280;75366;54.588;18.456;2024-02-26T00:49:51;99856.16;;;3.10;83.96
85039;BME280;75366;54.588;18.456;2024-02-26T00:54:52;99853.46;;;3.17;83.98
85039;BME280;75366;54.588;18.456;2024-02-26T00:59:54;99849.39;;;3.19;83.76
85039;BME280;75366;54.588;18.456;2024-02-26T01:04:58;99845.80;;;3.23;83.87
85039;BME280;75366;54.588;18.456;2024-02-26T01:09:59;99850.96;;;3.27;84.03
85039;BME280;75366;54.588;18.456;2024-02-26T01:15:02;99849.33;;;3.28;83.98
85039;BME280;75366;54.588;18.456;2024-02-26T01:20:07;99849.86;;;3.31;83.91
85039;BME280;75366;54.588;18.456;2024-02-26T01:25:10;99847.67;;;3.28;83.75
85039;BME280;75366;54.588;18.456;2024-02-26T01:30:12;99838.86;;;3.21;83.70
85039;BME280;75366;54.588;18.456;2024-02-26T01:35:13;99828.13;;;3.15;83.70
85039;BME280;75366;54.588;18.456;2024-02-26T01:40:15;99825.77;;;3.11;83.26
85039;BME280;75366;54.588;18.456;2024-02-26T01:45:20;99820.87;;;3.01;83.31
85039;BME280;75366;54.588;18.456;2024-02-26T01:50:26;99821.11;;;2.96;83.37
85039;BME280;75366;54.588;18.456;2024-02-26T01:55:28;99826.45;;;2.94;83.58
85039;BME280;75366;54.588;18.456;2024-02-26T02:00:30;99831.75;;;2.89;83.58
85039;BME280;75366;54.588;18.456;2024-02-26T02:05:33;99833.55;;;2.84;83.90
85039;BME280;75366;54.588;18.456;2024-02-26T02:10:36;99832.61;;;2.81;83.82
85039;BME280;75366;54.588;18.456;2024-02-26T02:15:39;99834.83;;;2.77;84.07
85039;BME280;75366;54.588;18.456;2024-02-26T02:20:41;99837.98;;;2.74;84.27
85039;BME280;75366;54.588;18.456;2024-02-26T02:25:42;99841.75;;;2.72;83.98
85039;BME280;75366;54.588;18.456;2024-02-26T02:30:44;99840.30;;;2.71;84.46
85039;BME280;75366;54.588;18.456;2024-02-26T02:35:45;99834.28;;;2.77;84.82
85039;BME280;75366;54.588;18.456;2024-02-26T02:40:48;99837.77;;;2.90;85.54
85039;BME280;75366;54.588;18.456;2024-02-26T02:45:50;99840.60;;;2.95;85.15
85039;BME280;75366;54.588;18.456;2024-02-26T02:50:53;99839.30;;;2.98;85.30
85039;BME280;75366;54.588;18.456;2024-02-26T02:55:54;99842.44;;;2.99;85.08
85039;BME280;75366;54.588;18.456;2024-02-26T03:00:56;99844.79;;;2.95;84.99
85039;BME280;75366;54.588;18.456;2024-02-26T03:05:57;99842.27;;;2.91;84.89
85039;BME280;75366;54.588;18.456;2024-02-26T03:10:59;99840.04;;;2.88;84.63
85039;BME280;75366;54.588;18.456;2024-02-26T03:16:05;99836.79;;;2.88;84.77
85039;BME280;75366;54.588;18.456;2024-02-26T03:21:07;99828.06;;;2.86;84.99
85039;BME280;75366;54.588;18.456;2024-02-26T03:26:09;99823.90;;;2.90;85.41
85039;BME280;75366;54.588;18.456;2024-02-26T03:31:15;99823.30;;;2.99;85.49
85039;BME280;75366;54.588;18.456;2024-02-26T03:36:16;99824.84;;;3.09;85.85
85039;BME280;75366;54.588;18.456;2024-02-26T03:41:18;99831.07;;;3.24;85.73
85039;BME280;75366;54.588;18.456;2024-02-26T03:46:19;99834.45;;;3.35;85.79
85039;BME280;75366;54.588;18.456;2024-02-26T03:51:21;99830.02;;;3.37;85.41
85039;BME280;75366;54.588;18.456;2024-02-26T03:56:23;99830.30;;;3.37;85.27
85039;BME280;75366;54.588;18.456;2024-02-26T04:01:46;99831.97;;;3.36;85.33
85039;BME280;75366;54.588;18.456;2024-02-26T04:06:51;99831.44;;;3.36;85.29
85039;BME280;75366;54.588;18.456;2024-02-26T04:11:53;99832.50;;;3.36;84.91
85039;BME280;75366;54.588;18.456;2024-02-26T04:16:54;99837.06;;;3.35;84.72
85039;BME280;75366;54.588;18.456;2024-02-26T04:21:56;99837.69;;;3.28;84.80
85039;BME280;75366;54.588;18.456;2024-02-26T04:26:58;99836.12;;;3.24;84.79
85039;BME280;75366;54.588;18.456;2024-02-26T04:31:59;99835.67;;;3.20;84.58
85039;BME280;75366;54.588;18.456;2024-02-26T04:37:01;99835.54;;;3.16;84.71
85039;BME280;75366;54.588;18.456;2024-02-26T04:42:02;99842.08;;;3.13;84.84
85039;BME280;75366;54.588;18.456;2024-02-26T04:47:05;99845.25;;;3.12;84.77
85039;BME280;75366;54.588;18.456;2024-02-26T04:52:06;99845.72;;;3.07;84.78
85039;BME280;75366;54.588;18.456;2024-02-26T04:57:08;99845.02;;;3.03;84.90
85039;BME280;75366;54.588;18.456;2024-02-26T05:02:09;99846.55;;;2.98;84.64
85039;BME280;75366;54.588;18.456;2024-02-26T05:07:11;99846.07;;;2.89;84.45
85039;BME280;75366;54.588;18.456;2024-02-26T05:12:14;99854.08;;;2.80;84.68
85039;BME280;75366;54.588;18.456;2024-02-26T05:17:15;99860.52;;;2.77;85.16
85039;BME280;75366;54.588;18.456;2024-02-26T05:22:17;99866.45;;;2.73;84.85
85039;BME280;75366;54.588;18.456;2024-02-26T05:27:18;99872.10;;;2.68;84.87
85039;BME280;75366;54.588;18.456;2024-02-26T05:32:21;99880.21;;;2.64;84.58
85039;BME280;75366;54.588;18.456;2024-02-26T05:37:23;99897.91;;;2.60;84.58
85039;BME280;75366;54.588;18.456;2024-02-26T05:42:24;99899.25;;;2.55;84.59
85039;BME280;75366;54.588;18.456;2024-02-26T05:47:25;99907.73;;;2.52;84.41
85039;BME280;75366;54.588;18.456;2024-02-26T05:52:27;99911.95;;;2.50;84.56
85039;BME280;75366;54.588;18.456;2024-02-26T05:57:34;99916.15;;;2.52;85.04
85039;BME280;75366;54.588;18.456;2024-02-26T06:02:36;99925.88;;;2.57;85.27
85039;BME280;75366;54.588;18.456;2024-02-26T06:07:38;99930.99;;;2.62;85.20
85039;BME280;75366;54.588;18.456;2024-02-26T06:12:59;99934.65;;;2.52;84.53
85039;BME280;75366;54.588;18.456;2024-02-26T06:18:10;99942.85;;;2.51;84.60
85039;BME280;75366;54.588;18.456;2024-02-26T06:23:31;99943.27;;;2.55;84.65
85039;BME280;75366;54.588;18.456;2024-02-26T06:28:34;99945.16;;;2.67;85.08
85039;BME280;75366;54.588;18.456;2024-02-26T06:33:37;99949.60;;;2.77;85.30
85039;BME280;75366;54.588;18.456;2024-02-26T06:38:39;99953.69;;;2.92;85.69
85039;BME280;75366;54.588;18.456;2024-02-26T06:43:41;99959.75;;;3.10;86.00
85039;BME280;75366;54.588;18.456;2024-02-26T06:48:43;99958.04;;;3.16;85.50
85039;BME280;75366;54.588;18.456;2024-02-26T06:53:44;99965.27;;;3.30;86.07
85039;BME280;75366;54.588;18.456;2024-02-26T06:58:46;99970.42;;;3.54;86.45
85039;BME280;75366;54.588;18.456;2024-02-26T07:03:48;99974.42;;;3.68;85.83
85039;BME280;75366;54.588;18.456;2024-02-26T07:08:50;99976.20;;;3.72;85.21
85039;BME280;75366;54.588;18.456;2024-02-26T07:13:51;99985.05;;;3.75;85.23
85039;BME280;75366;54.588;18.456;2024-02-26T07:18:53;99991.22;;;3.80;85.17
85039;BME280;75366;54.588;18.456;2024-02-26T07:23:55;99992.73;;;3.80;84.81
85039;BME280;75366;54.588;18.456;2024-02-26T07:28:56;99992.10;;;3.89;84.73
85039;BME280;75366;54.588;18.456;2024-02-26T07:33:58;99994.29;;;3.95;84.62
85039;BME280;75366;54.588;18.456;2024-02-26T07:39:19;100001.08;;;3.98;84.92
85039;BME280;75366;54.588;18.456;2024-02-26T07:44:41;99998.98;;;4.06;85.04
85039;BME280;75366;54.588;18.456;2024-02-26T07:49:48;99996.49;;;4.14;84.94
85039;BME280;75366;54.588;18.456;2024-02-26T07:54:49;100000.02;;;4.20;84.74
85039;BME280;75366;54.588;18.456;2024-02-26T08:00:11;100004.32;;;4.26;84.97
85039;BME280;75366;54.588;18.456;2024-02-26T08:05:33;100010.92;;;4.39;85.32
85039;BME280;75366;54.588;18.456;2024-02-26T08:10:55;100019.36;;;4.64;85.38
85039;BME280;75366;54.588;18.456;2024-02-26T08:16:16;100026.43;;;4.89;85.58
85039;BME280;75366;54.588;18.456;2024-02-26T08:21:20;100031.36;;;5.11;85.40
85039;BME280;75366;54.588;18.456;2024-02-26T08:26:22;100039.80;;;5.35;85.28
85039;BME280;75366;54.588;18.456;2024-02-26T08:31:25;100039.75;;;5.56;85.02
85039;BME280;75366;54.588;18.456;2024-02-26T08:36:27;100038.52;;;5.75;84.82
85039;BME280;75366;54.588;18.456;2024-02-26T08:41:28;100041.36;;;5.97;84.31
85039;BME280;75366;54.588;18.456;2024-02-26T08:46:30;100042.13;;;6.17;83.81
85039;BME280;75366;54.588;18.456;2024-02-26T08:51:31;100043.40;;;6.35;83.37
85039;BME280;75366;54.588;18.456;2024-02-26T08:56:33;100049.67;;;6.47;83.09
85039;BME280;75366;54.588;18.456;2024-02-26T09:01:35;100057.02;;;6.57;82.94
85039;BME280;75366;54.588;18.456;2024-02-26T09:06:37;100058.66;;;6.64;83.01
85039;BME280;75366;54.588;18.456;2024-02-26T09:11:58;100066.04;;;6.74;82.73
85039;BME280;75366;54.588;18.456;2024-02-26T09:17:04;100076.25;;;6.90;82.40
85039;BME280;75366;54.588;18.456;2024-02-26T09:22:07;100083.73;;;7.01;82.33
85039;BME280;75366;54.588;18.456;2024-02-26T09:27:08;100088.66;;;7.00;82.11
85039;BME280;75366;54.588;18.456;2024-02-26T09:32:10;100087.33;;;6.96;81.92
85039;BME280;75366;54.588;18.456;2024-02-26T09:37:12;100086.31;;;6.98;82.15
85039;BME280;75366;54.588;18.456;2024-02-26T09:42:34;100091.96;;;7.12;81.92
85039;BME280;75366;54.588;18.456;2024-02-26T09:47:57;100091.95;;;7.30;81.61
85039;BME280;75366;54.588;18.456;2024-02-26T09:52:59;100095.42;;;7.45;81.28
85039;BME280;75366;54.588;18.456;2024-02-26T09:58:05;100092.70;;;7.56;81.24
85039;BME280;75366;54.588;18.456;2024-02-26T10:03:38;100096.38;;;7.67;80.86
85039;BME280;75366;54.588;18.456;2024-02-26T10:09:01;100103.63;;;7.85;80.87
85039;BME280;75366;54.588;18.456;2024-02-26T10:14:22;100105.66;;;8.03;80.10
85039;BME280;75366;54.588;18.456;2024-02-26T10:19:44;100107.52;;;8.17;78.92
85039;BME280;75366;54.588;18.456;2024-02-26T10:25:06;100116.55;;;8.27;78.76
85039;BME280;75366;54.588;18.456;2024-02-26T10:30:28;100120.29;;;8.38;77.76
85039;BME280;75366;54.588;18.456;2024-02-26T10:35:30;100116.91;;;8.47;76.57
85039;BME280;75366;54.588;18.456;2024-02-26T10:40:33;100118.75;;;8.54;76.31
85039;BME280;75366;54.588;18.456;2024-02-26T10:45:34;100126.00;;;8.61;75.93
85039;BME280;75366;54.588;18.456;2024-02-26T10:50:40;100127.13;;;8.71;75.53
85039;BME280;75366;54.588;18.456;2024-02-26T10:55:42;100125.89;;;8.87;74.95
85039;BME280;75366;54.588;18.456;2024-02-26T11:01:04;100128.79;;;8.98;74.71
85039;BME280;75366;54.588;18.456;2024-02-26T11:06:27;100127.55;;;9.06;74.44
85039;BME280;75366;54.588;18.456;2024-02-26T11:11:49;100119.20;;;9.19;73.84
85039;BME280;75366;54.588;18.456;2024-02-26T11:17:12;100120.95;;;9.22;71.85
85039;BME280;75366;54.588;18.456;2024-02-26T11:22:14;100127.70;;;9.18;71.59
85039;BME280;75366;54.588;18.456;2024-02-26T11:27:35;100125.86;;;9.21;71.88
85039;BME280;75366;54.588;18.456;2024-02-26T11:32:39;100122.83;;;9.24;71.91
85039;BME280;75366;54.588;18.456;2024-02-26T11:37:41;100127.77;;;9.29;71.50
85039;BME280;75366;54.588;18.456;2024-02-26T11:42:47;100125.34;;;9.31;71.37
85039;BME280;75366;54.588;18.456;2024-02-26T11:47:56;100128.55;;;9.31;70.78
85039;BME280;75366;54.588;18.456;2024-02-26T11:58:22;100149.18;;;9.22;70.57
85039;BME280;75366;54.588;18.456;2024-02-26T12:03:24;100159.48;;;9.13;70.71
85039;BME280;75366;54.588;18.456;2024-02-26T12:08:25;100161.30;;;9.11;70.44
85039;BME280;75366;54.588;18.456;2024-02-26T12:13:31;100168.02;;;9.08;70.86
85039;BME280;75366;54.588;18.456;2024-02-26T12:18:34;100166.27;;;8.95;70.67
85039;BME280;75366;54.588;18.456;2024-02-26T12:23:36;100162.99;;;8.79;70.47
85039;BME280;75366;54.588;18.456;2024-02-26T12:28:37;100161.75;;;8.53;70.43
85039;BME280;75366;54.588;18.456;2024-02-26T12:33:39;100166.45;;;8.30;71.52
85039;BME280;75366;54.588;18.456;2024-02-26T12:38:41;100168.23;;;8.21;71.70
85039;BME280;75366;54.588;18.456;2024-02-26T12:43:42;100167.55;;;8.15;72.13
85039;BME280;75366;54.588;18.456;2024-02-26T12:48:46;100166.52;;;8.14;71.86
85039;BME280;75366;54.588;18.456;2024-02-26T12:53:49;100174.37;;;8.09;71.93
85039;BME280;75366;54.588;18.456;2024-02-26T12:58:53;100181.89;;;8.04;72.22
85039;BME280;75366;54.588;18.456;2024-02-26T13:03:56;100188.92;;;8.00;72.40
85039;BME280;75366;54.588;18.456;2024-02-26T13:08:58;100196.83;;;7.90;72.20
85039;BME280;75366;54.588;18.456;2024-02-26T13:14:00;100202.64;;;7.86;72.59
85039;BME280;75366;54.588;18.456;2024-02-26T13:19:11;100205.66;;;7.75;72.40
85039;BME280;75366;54.588;18.456;2024-02-26T13:24:13;100206.98;;;7.58;72.56
85039;BME280;75366;54.588;18.456;2024-02-26T13:29:25;100214.67;;;7.44;73.20
85039;BME280;75366;54.588;18.456;2024-02-26T13:34:32;100214.05;;;7.35;73.58
85039;BME280;75366;54.588;18.456;2024-02-26T13:39:50;100209.70;;;7.26;73.68
85039;BME280;75366;54.588;18.456;2024-02-26T13:44:52;100217.17;;;7.16;74.01
85039;BME280;75366;54.588;18.456;2024-02-26T13:50:13;100226.33;;;7.06;74.70
85039;BME280;75366;54.588;18.456;2024-02-26T13:55:15;100228.04;;;6.94;74.87
85039;BME280;75366;54.588;18.456;2024-02-26T14:00:33;100227.63;;;6.84;74.85
85039;BME280;75366;54.588;18.456;2024-02-26T14:05:36;100232.31;;;6.71;74.98
85039;BME280;75366;54.588;18.456;2024-02-26T14:10:38;100227.83;;;6.61;75.45
85039;BME280;75366;54.588;18.456;2024-02-26T14:15:40;100226.14;;;6.52;75.62
85039;BME280;75366;54.588;18.456;2024-02-26T14:20:42;100233.74;;;6.45;75.72
85039;BME280;75366;54.588;18.456;2024-02-26T14:26:04;100237.08;;;6.38;75.89
85039;BME280;75366;54.588;18.456;2024-02-26T14:31:25;100244.00;;;6.33;75.89
85039;BME280;75366;54.588;18.456;2024-02-26T14:36:48;100245.30;;;6.29;76.06
85039;BME280;75366;54.588;18.456;2024-02-26T14:42:10;100239.34;;;6.17;75.92
85039;BME280;75366;54.588;18.456;2024-02-26T14:47:32;100242.64;;;6.13;76.01
85039;BME280;75366;54.588;18.456;2024-02-26T14:52:53;100241.15;;;6.05;75.98
85039;BME280;75366;54.588;18.456;2024-02-26T14:58:15;100246.78;;;6.01;76.27
85039;BME280;75366;54.588;18.456;2024-02-26T15:03:37;100250.92;;;5.93;76.13
85039;BME280;75366;54.588;18.456;2024-02-26T15:08:59;100256.74;;;5.88;76.32
85039;BME280;75366;54.588;18.456;2024-02-26T15:14:01;100262.23;;;5.83;76.29
85039;BME280;75366;54.588;18.456;2024-02-26T15:19:02;100264.97;;;5.76;76.59
85039;BME280;75366;54.588;18.456;2024-02-26T15:24:05;100273.15;;;5.67;76.55
85039;BME280;75366;54.588;18.456;2024-02-26T15:29:09;100280.72;;;5.57;76.67
85039;BME280;75366;54.588;18.456;2024-02-26T15:34:11;100290.40;;;5.48;76.66
85039;BME280;75366;54.588;18.456;2024-02-26T15:39:13;100297.74;;;5.39;76.80
85039;BME280;75366;54.588;18.456;2024-02-26T15:44:37;100306.47;;;5.33;76.82
85039;BME280;75366;54.588;18.456;2024-02-26T15:49:59;100314.52;;;5.30;76.91
85039;BME280;75366;54.588;18.456;2024-02-26T15:55:00;100320.25;;;5.25;76.95
85039;BME280;75366;54.588;18.456;2024-02-26T16:00:02;100328.36;;;5.17;77.07
85039;BME280;75366;54.588;18.456;2024-02-26T16:05:09;100332.40;;;5.08;77.22
85039;BME280;75366;54.588;18.456;2024-02-26T16:10:11;100338.45;;;4.96;77.46
85039;BME280;75366;54.588;18.456;2024-02-26T16:15:35;100348.16;;;4.86;77.72
85039;BME280;75366;54.588;18.456;2024-02-26T16:20:57;100362.56;;;4.79;77.71
85039;BME280;75366;54.588;18.456;2024-02-26T16:26:18;100375.14;;;4.73;77.74
85039;BME280;75366;54.588;18.456;2024-02-26T16:31:40;100378.39;;;4.63;77.80
85039;BME280;75366;54.588;18.456;2024-02-26T16:37:08;100377.73;;;4.54;77.83
85039;BME280;75366;54.588;18.456;2024-02-26T16:42:34;100379.73;;;4.54;78.01
85039;BME280;75366;54.588;18.456;2024-02-26T16:47:56;100390.57;;;4.49;77.95
85039;BME280;75366;54.588;18.456;2024-02-26T16:53:17;100392.70;;;4.41;78.07
85039;BME280;75366;54.588;18.456;2024-02-26T16:58:39;100389.27;;;4.28;78.76
85039;BME280;75366;54.588;18.456;2024-02-26T17:04:00;100390.36;;;4.09;79.43
85039;BME280;75366;54.588;18.456;2024-02-26T17:09:22;100390.70;;;4.05;79.72
85039;BME280;75366;54.588;18.456;2024-02-26T17:14:44;100399.58;;;4.10;79.73
85039;BME280;75366;54.588;18.456;2024-02-26T17:20:06;100400.09;;;4.08;79.90
85039;BME280;75366;54.588;18.456;2024-02-26T17:25:15;100403.14;;;4.05;80.07
85039;BME280;75366;54.588;18.456;2024-02-26T17:30:17;100408.79;;;3.99;80.09
85039;BME280;75366;54.588;18.456;2024-02-26T17:35:19;100412.81;;;3.97;80.23
85039;BME280;75366;54.588;18.456;2024-02-26T17:40:20;100417.86;;;3.95;80.13
85039;BME280;75366;54.588;18.456;2024-02-26T17:45:23;100419.02;;;3.91;79.98
85039;BME280;75366;54.588;18.456;2024-02-26T17:50:25;100420.54;;;3.92;80.26
85039;BME280;75366;54.588;18.456;2024-02-26T17:55:28;100421.20;;;3.89;80.89
85039;BME280;75366;54.588;18.456;2024-02-26T18:00:29;100420.23;;;3.86;81.00
85039;BME280;75366;54.588;18.456;2024-02-26T18:05:31;100423.55;;;3.83;81.10
85039;BME280;75366;54.588;18.456;2024-02-26T18:10:32;100432.57;;;3.86;81.02
85039;BME280;75366;54.588;18.456;2024-02-26T18:15:34;100435.23;;;3.90;81.07
85039;BME280;75366;54.588;18.456;2024-02-26T18:20:36;100444.84;;;3.85;81.13
85039;BME280;75366;54.588;18.456;2024-02-26T18:25:41;100447.45;;;3.83;80.81
85039;BME280;75366;54.588;18.456;2024-02-26T18:30:42;100444.61;;;3.83;80.66
85039;BME280;75366;54.588;18.456;2024-02-26T18:35:47;100444.64;;;3.88;80.70
85039;BME280;75366;54.588;18.456;2024-02-26T18:40:48;100435.52;;;3.86;81.11
85039;BME280;75366;54.588;18.456;2024-02-26T18:45:50;100441.48;;;3.84;81.37
85039;BME280;75366;54.588;18.456;2024-02-26T18:51:11;100445.63;;;3.90;81.15
85039;BME280;75366;54.588;18.456;2024-02-26T18:56:33;100449.48;;;3.93;81.34
85039;BME280;75366;54.588;18.456;2024-02-26T19:01:35;100450.93;;;3.92;81.08
85039;BME280;75366;54.588;18.456;2024-02-26T19:06:56;100457.39;;;3.86;80.99
85039;BME280;75366;54.588;18.456;2024-02-26T19:12:20;100469.82;;;3.86;81.26
85039;BME280;75366;54.588;18.456;2024-02-26T19:17:23;100481.19;;;3.83;81.10
85039;BME280;75366;54.588;18.456;2024-02-26T19:22:24;100481.07;;;3.82;81.35
85039;BME280;75366;54.588;18.456;2024-02-26T19:27:26;100480.94;;;3.87;81.37
85039;BME280;75366;54.588;18.456;2024-02-26T19:32:27;100487.44;;;3.93;81.42
85039;BME280;75366;54.588;18.456;2024-02-26T19:37:29;100488.67;;;3.97;81.70
85039;BME280;75366;54.588;18.456;2024-02-26T19:42:30;100491.71;;;4.00;81.63
85039;BME280;75366;54.588;18.456;2024-02-26T19:47:32;100489.52;;;4.00;81.61
85039;BME280;75366;54.588;18.456;2024-02-26T19:52:36;100491.96;;;3.99;81.95
85039;BME280;75366;54.588;18.456;2024-02-26T19:57:37;100497.80;;;4.02;82.03
85039;BME280;75366;54.588;18.456;2024-02-26T20:02:39;100500.52;;;4.04;82.09
85039;BME280;75366;54.588;18.456;2024-02-26T20:07:41;100499.51;;;4.08;82.20
85039;BME280;75366;54.588;18.456;2024-02-26T20:12:43;100496.23;;;4.07;82.18
85039;BME280;75366;54.588;18.456;2024-02-26T20:17:44;100506.69;;;4.08;82.54
85039;BME280;75366;54.588;18.456;2024-02-26T20:22:46;100503.02;;;4.04;83.04
85039;BME280;75366;54.588;18.456;2024-02-26T20:27:47;100502.75;;;3.98;83.06
85039;BME280;75366;54.588;18.456;2024-02-26T20:32:49;100504.62;;;3.98;83.19
85039;BME280;75366;54.588;18.456;2024-02-26T20:37:51;100509.05;;;4.01;83.26
85039;BME280;75366;54.588;18.456;2024-02-26T20:42:52;100507.34;;;4.02;83.42
85039;BME280;75366;54.588;18.456;2024-02-26T20:47:55;100501.48;;;3.98;83.70
85039;BME280;75366;54.588;18.456;2024-02-26T20:52:58;100512.67;;;3.96;83.70
85039;BME280;75366;54.588;18.456;2024-02-26T20:57:59;100516.82;;;4.01;83.52
85039;BME280;75366;54.588;18.456;2024-02-26T21:03:01;100517.77;;;4.02;83.71
85039;BME280;75366;54.588;18.456;2024-02-26T21:08:23;100515.99;;;3.90;84.19
85039;BME280;75366;54.588;18.456;2024-02-26T21:13:45;100513.43;;;3.84;84.21
85039;BME280;75366;54.588;18.456;2024-02-26T21:19:06;100526.69;;;3.86;84.27
85039;BME280;75366;54.588;18.456;2024-02-26T21:24:28;100531.33;;;3.87;84.35
85039;BME280;75366;54.588;18.456;2024-02-26T21:29:49;100533.81;;;3.81;84.47
85039;BME280;75366;54.588;18.456;2024-02-26T21:35:11;100534.39;;;3.78;84.50
85039;BME280;75366;54.588;18.456;2024-02-26T21:40:32;100533.75;;;3.83;84.49
85039;BME280;75366;54.588;18.456;2024-02-26T21:45:54;100539.25;;;3.90;84.38
85039;BME280;75366;54.588;18.456;2024-02-26T21:51:16;100542.36;;;3.99;84.29
85039;BME280;75366;54.588;18.456;2024-02-26T21:56:37;100543.52;;;3.99;84.03
85039;BME280;75366;54.588;18.456;2024-02-26T22:01:59;100544.53;;;3.95;84.25
85039;BME280;75366;54.588;18.456;2024-02-26T22:07:20;100551.26;;;3.94;84.36
85039;BME280;75366;54.588;18.456;2024-02-26T22:12:22;100555.49;;;3.93;84.15
85039;BME280;75366;54.588;18.456;2024-02-26T22:17:43;100561.14;;;3.93;84.13
85039;BME280;75366;54.588;18.456;2024-02-26T22:23:05;100562.19;;;3.90;84.27
85039;BME280;75366;54.588;18.456;2024-02-26T22:28:27;100554.14;;;3.86;84.70
85039;BME280;75366;54.588;18.456;2024-02-26T22:33:28;100557.31;;;3.84;84.95
85039;BME280;75366;54.588;18.456;2024-02-26T22:38:50;100554.02;;;3.80;84.91
85039;BME280;75366;54.588;18.456;2024-02-26T22:43:51;100555.57;;;3.85;85.03
85039;BME280;75366;54.588;18.456;2024-02-26T22:48:53;100560.08;;;3.90;84.96
85039;BME280;75366;54.588;18.456;2024-02-26T22:53:57;100559.15;;;3.92;84.89
85039;BME280;75366;54.588;18.456;2024-02-26T22:59:18;100553.70;;;3.93;85.04
85039;BME280;75366;54.588;18.456;2024-02-26T23:04:40;100550.16;;;3.90;85.24
85039;BME280;75366;54.588;18.456;2024-02-26T23:09:42;100541.89;;;3.87;85.79
85039;BME280;75366;54.588;18.456;2024-02-26T23:14:43;100540.23;;;3.85;85.92
85039;BME280;75366;54.588;18.456;2024-02-26T23:19:45;100539.10;;;3.80;86.31
85039;BME280;75366;54.588;18.456;2024-02-26T23:24:47;100530.89;;;3.76;86.58
85039;BME280;75366;54.588;18.456;2024-02-26T23:29:48;100535.69;;;3.75;86.72
85039;BME280;75366;54.588;18.456;2024-02-26T23:34:50;100535.77;;;3.74;86.84
85039;BME280;75366;54.588;18.456;2024-02-26T23:39:52;100530.70;;;3.77;86.55
85039;BME280;75366;54.588;18.456;2024-02-26T23:44:54;100541.91;;;3.80;86.92
85039;BME280;75366;54.588;18.456;2024-02-26T23:49:55;100538.48;;;3.79;86.78
85039;BME280;75366;54.588;18.456;2024-02-26T23:54:57;100547.09;;;3.78;86.85
85039;BME280;75366;54.588;18.456;2024-02-26T23:59:59;100550.46;;;3.78;86.71
